sensor_id;sensor_type;location;lat;lon;timestamp;P1;durP1;ratioP1;P2;durP2;ratioP2
17814;SDS011;9031;50.974;11.330;2023-10-13T00:01:24;2.93;;;2.13;;
17814;SDS011;9031;50.974;11.330;2023-10-13T00:03:50;3.33;;;2.37;;
17814;SDS011;9031;50.974;11.330;2023-10-13T00:06:19;4.00;;;2.00;;
17814;SDS011;9031;50.974;11.330;2023-10-13T00:08:45;3.00;;;2.20;;
17814;SDS011;9031;50.974;11.330;2023-10-13T00:11:14;2.97;;;2.27;;
17814;SDS011;9031;50.974;11.330;2023-10-13T00:13:40;3.00;;;2.10;;
17814;SDS011;9031;50.974;11.330;2023-10-13T00:16:19;2.70;;;2.20;;
17814;SDS011;9031;50.974;11.330;2023-10-13T00:18:52;3.43;;;2.10;;
17814;SDS011;9031;50.974;11.330;2023-10-13T00:21:19;2.40;;;1.97;;
17814;SDS011;9031;50.974;11.330;2023-10-13T00:23:57;3.33;;;2.37;;
17814;SDS011;9031;50.974;11.330;2023-10-13T00:26:28;4.13;;;2.07;;
17814;SDS011;9031;50.974;11.330;2023-10-13T00:28:55;2.97;;;2.00;;
17814;SDS011;9031;50.974;11.330;2023-10-13T00:31:40;2.10;;;1.80;;
17814;SDS011;9031;50.974;11.330;2023-10-13T00:34:07;3.27;;;2.10;;
17814;SDS011;9031;50.974;11.330;2023-10-13T00:36:36;4.33;;;1.90;;
17814;SDS011;9031;50.974;11.330;2023-10-13T00:39:12;3.23;;;2.17;;
17814;SDS011;9031;50.974;11.330;2023-10-13T00:41:40;3.60;;;2.20;;
17814;SDS011;9031;50.974;11.330;2023-10-13T00:44:24;4.50;;;2.40;;
17814;SDS011;9031;50.974;11.330;2023-10-13T00:47:09;3.97;;;2.63;;
17814;SDS011;9031;50.974;11.330;2023-10-13T00:49:41;4.80;;;2.27;;
17814;SDS011;9031;50.974;11.330;2023-10-13T00:52:12;3.30;;;2.80;;
17814;SDS011;9031;50.974;11.330;2023-10-13T00:54:37;3.10;;;2.40;;
17814;SDS011;9031;50.974;11.330;2023-10-13T00:57:03;5.07;;;2.50;;
17814;SDS011;9031;50.974;11.330;2023-10-13T00:59:36;3.67;;;2.80;;
17814;SDS011;9031;50.974;11.330;2023-10-13T01:02:02;3.30;;;2.50;;
17814;SDS011;9031;50.974;11.330;2023-10-13T01:04:48;4.07;;;2.40;;
17814;SDS011;9031;50.974;11.330;2023-10-13T01:07:14;3.57;;;2.47;;
17814;SDS011;9031;50.974;11.330;2023-10-13T01:09:47;2.40;;;2.20;;
17814;SDS011;9031;50.974;11.330;2023-10-13T01:12:12;4.20;;;2.80;;
17814;SDS011;9031;50.974;11.330;2023-10-13T01:14:39;3.37;;;2.60;;
17814;SDS011;9031;50.974;11.330;2023-10-13T01:17:05;4.70;;;2.60;;
17814;SDS011;9031;50.974;11.330;2023-10-13T01:19:35;4.23;;;2.77;;
17814;SDS011;9031;50.974;11.330;2023-10-13T01:22:04;4.77;;;2.83;;
17814;SDS011;9031;50.974;11.330;2023-10-13T01:24:31;3.17;;;2.50;;
17814;SDS011;9031;50.974;11.330;2023-10-13T01:26:59;5.53;;;2.67;;
17814;SDS011;9031;50.974;11.330;2023-10-13T01:29:35;4.00;;;2.80;;
17814;SDS011;9031;50.974;11.330;2023-10-13T01:32:01;3.80;;;3.00;;
17814;SDS011;9031;50.974;11.330;2023-10-13T01:34:26;4.23;;;2.87;;
17814;SDS011;9031;50.974;11.330;2023-10-13T01:36:52;3.93;;;2.50;;
17814;SDS011;9031;50.974;11.330;2023-10-13T01:39:19;2.60;;;2.30;;
17814;SDS011;9031;50.974;11.330;2023-10-13T01:41:46;3.90;;;2.87;;
17814;SDS011;9031;50.974;11.330;2023-10-13T01:44:18;4.43;;;2.60;;
17814;SDS011;9031;50.974;11.330;2023-10-13T01:46:45;3.73;;;2.77;;
17814;SDS011;9031;50.974;11.330;2023-10-13T01:49:12;5.43;;;2.67;;
17814;SDS011;9031;50.974;11.330;2023-10-13T01:51:40;4.83;;;2.70;;
17814;SDS011;9031;50.974;11.330;2023-10-13T01:54:06;4.83;;;3.07;;
17814;SDS011;9031;50.974;11.330;2023-10-13T01:56:36;6.10;;;3.27;;
17814;SDS011;9031;50.974;11.330;2023-10-13T01:59:07;5.83;;;3.07;;
17814;SDS011;9031;50.974;11.330;2023-10-13T02:01:34;4.43;;;3.13;;
17814;SDS011;9031;50.974;11.330;2023-10-13T02:04:01;4.07;;;3.07;;
17814;SDS011;9031;50.974;11.330;2023-10-13T02:06:30;4.27;;;3.23;;
17814;SDS011;9031;50.974;11.330;2023-10-13T02:09:04;2.97;;;2.67;;
17814;SDS011;9031;50.974;11.330;2023-10-13T02:11:50;4.67;;;3.20;;
17814;SDS011;9031;50.974;11.330;2023-10-13T02:14:19;6.87;;;3.47;;
17814;SDS011;9031;50.974;11.330;2023-10-13T02:16:46;4.17;;;3.40;;
17814;SDS011;9031;50.974;11.330;2023-10-13T02:19:14;5.53;;;2.80;;
17814;SDS011;9031;50.974;11.330;2023-10-13T02:21:41;4.37;;;3.10;;
17814;SDS011;9031;50.974;11.330;2023-10-13T02:24:09;4.67;;;3.30;;
17814;SDS011;9031;50.974;11.330;2023-10-13T02:26:38;4.60;;;3.33;;
17814;SDS011;9031;50.974;11.330;2023-10-13T02:29:07;3.87;;;3.20;;
17814;SDS011;9031;50.974;11.330;2023-10-13T02:31:36;4.43;;;3.30;;
17814;SDS011;9031;50.974;11.330;2023-10-13T02:34:02;4.67;;;3.03;;
17814;SDS011;9031;50.974;11.330;2023-10-13T02:36:37;5.33;;;3.07;;
17814;SDS011;9031;50.974;11.330;2023-10-13T02:39:14;5.17;;;3.50;;
17814;SDS011;9031;50.974;11.330;2023-10-13T02:41:41;3.30;;;3.00;;
17814;SDS011;9031;50.974;11.330;2023-10-13T02:44:13;4.60;;;2.97;;
17814;SDS011;9031;50.974;11.330;2023-10-13T02:46:55;5.13;;;2.97;;
17814;SDS011;9031;50.974;11.330;2023-10-13T02:49:29;4.47;;;3.30;;
17814;SDS011;9031;50.974;11.330;2023-10-13T02:52:02;5.13;;;3.57;;
17814;SDS011;9031;50.974;11.330;2023-10-13T02:54:33;4.57;;;3.70;;
17814;SDS011;9031;50.974;11.330;2023-10-13T02:57:04;3.90;;;3.40;;
17814;SDS011;9031;50.974;11.330;2023-10-13T02:59:31;5.33;;;3.20;;
17814;SDS011;9031;50.974;11.330;2023-10-13T03:02:05;5.20;;;2.90;;
17814;SDS011;9031;50.974;11.330;2023-10-13T03:05:16;5.17;;;3.20;;
17814;SDS011;9031;50.974;11.330;2023-10-13T03:07:37;3.40;;;3.10;;
17814;SDS011;9031;50.974;11.330;2023-10-13T03:10:03;3.40;;;3.10;;
17814;SDS011;9031;50.974;11.330;2023-10-13T03:12:38;5.60;;;3.33;;
17814;SDS011;9031;50.974;11.330;2023-10-13T03:15:05;3.97;;;3.20;;
17814;SDS011;9031;50.974;11.330;2023-10-13T03:17:45;4.20;;;3.00;;
17814;SDS011;9031;50.974;11.330;2023-10-13T03:22:39;4.37;;;3.00;;
17814;SDS011;9031;50.974;11.330;2023-10-13T03:25:04;3.93;;;3.40;;
17814;SDS011;9031;50.974;11.330;2023-10-13T03:27:34;5.27;;;3.50;;
17814;SDS011;9031;50.974;11.330;2023-10-13T03:30:18;3.83;;;3.17;;
17814;SDS011;9031;50.974;11.330;2023-10-13T03:32:46;7.30;;;3.33;;
17814;SDS011;9031;50.974;11.330;2023-10-13T03:35:18;4.23;;;3.07;;
17814;SDS011;9031;50.974;11.330;2023-10-13T03:37:52;6.70;;;3.50;;
17814;SDS011;9031;50.974;11.330;2023-10-13T03:40:19;4.63;;;3.13;;
17814;SDS011;9031;50.974;11.330;2023-10-13T03:42:46;5.23;;;3.23;;
17814;SDS011;9031;50.974;11.330;2023-10-13T03:45:35;4.10;;;3.27;;
17814;SDS011;9031;50.974;11.330;2023-10-13T03:48:15;6.20;;;3.20;;
17814;SDS011;9031;50.974;11.330;2023-10-13T03:50:50;5.00;;;3.17;;
17814;SDS011;9031;50.974;11.330;2023-10-13T03:53:36;4.00;;;3.20;;
17814;SDS011;9031;50.974;11.330;2023-10-13T03:56:17;4.77;;;3.60;;
17814;SDS011;9031;50.974;11.330;2023-10-13T03:58:53;4.43;;;3.30;;
17814;SDS011;9031;50.974;11.330;2023-10-13T04:01:23;3.87;;;3.47;;
17814;SDS011;9031;50.974;11.330;2023-10-13T04:04:07;7.37;;;3.40;;
17814;SDS011;9031;50.974;11.330;2023-10-13T04:06:37;6.17;;;3.90;;
17814;SDS011;9031;50.974;11.330;2023-10-13T04:09:15;7.20;;;3.83;;
17814;SDS011;9031;50.974;11.330;2023-10-13T04:12:05;4.20;;;3.57;;
17814;SDS011;9031;50.974;11.330;2023-10-13T04:14:39;5.20;;;3.90;;
17814;SDS011;9031;50.974;11.330;2023-10-13T04:17:22;6.50;;;4.30;;
17814;SDS011;9031;50.974;11.330;2023-10-13T04:19:50;4.67;;;3.17;;
17814;SDS011;9031;50.974;11.330;2023-10-13T04:22:32;3.77;;;3.37;;
17814;SDS011;9031;50.974;11.330;2023-10-13T04:25:22;5.87;;;3.33;;
17814;SDS011;9031;50.974;11.330;2023-10-13T04:28:00;4.97;;;3.33;;
17814;SDS011;9031;50.974;11.330;2023-10-13T04:30:38;6.50;;;3.37;;
17814;SDS011;9031;50.974;11.330;2023-10-13T04:33:28;3.83;;;3.23;;
17814;SDS011;9031;50.974;11.330;2023-10-13T04:36:14;5.67;;;3.73;;
17814;SDS011;9031;50.974;11.330;2023-10-13T04:38:52;4.50;;;3.33;;
17814;SDS011;9031;50.974;11.330;2023-10-13T04:41:25;3.50;;;3.20;;
17814;SDS011;9031;50.974;11.330;2023-10-13T04:44:04;4.50;;;3.67;;
17814;SDS011;9031;50.974;11.330;2023-10-13T04:46:49;3.83;;;3.43;;
17814;SDS011;9031;50.974;11.330;2023-10-13T04:49:15;4.50;;;3.47;;
17814;SDS011;9031;50.974;11.330;2023-10-13T04:52:00;4.47;;;3.30;;
17814;SDS011;9031;50.974;11.330;2023-10-13T04:54:36;9.03;;;3.53;;
17814;SDS011;9031;50.974;11.330;2023-10-13T04:57:14;4.67;;;3.70;;
17814;SDS011;9031;50.974;11.330;2023-10-13T05:00:02;5.40;;;3.27;;
17814;SDS011;9031;50.974;11.330;2023-10-13T05:02:35;4.73;;;3.00;;
17814;SDS011;9031;50.974;11.330;2023-10-13T05:05:20;5.23;;;2.87;;
17814;SDS011;9031;50.974;11.330;2023-10-13T05:08:04;4.00;;;3.03;;
17814;SDS011;9031;50.974;11.330;2023-10-13T05:10:48;5.43;;;3.60;;
17814;SDS011;9031;50.974;11.330;2023-10-13T05:13:32;4.57;;;3.60;;
17814;SDS011;9031;50.974;11.330;2023-10-13T05:16:16;4.80;;;3.57;;
17814;SDS011;9031;50.974;11.330;2023-10-13T05:19:00;4.43;;;3.00;;
17814;SDS011;9031;50.974;11.330;2023-10-13T05:21:44;3.40;;;3.10;;
17814;SDS011;9031;50.974;11.330;2023-10-13T05:24:28;8.23;;;3.60;;
17814;SDS011;9031;50.974;11.330;2023-10-13T05:27:13;3.80;;;3.13;;
17814;SDS011;9031;50.974;11.330;2023-10-13T05:29:56;4.17;;;3.20;;
17814;SDS011;9031;50.974;11.330;2023-10-13T05:32:41;5.63;;;3.50;;
17814;SDS011;9031;50.974;11.330;2023-10-13T05:35:24;5.03;;;3.27;;
17814;SDS011;9031;50.974;11.330;2023-10-13T05:38:09;3.47;;;3.00;;
17814;SDS011;9031;50.974;11.330;2023-10-13T05:40:57;6.00;;;3.40;;
17814;SDS011;9031;50.974;11.330;2023-10-13T05:43:42;4.27;;;3.30;;
17814;SDS011;9031;50.974;11.330;2023-10-13T05:46:27;4.20;;;3.60;;
17814;SDS011;9031;50.974;11.330;2023-10-13T05:48:53;4.67;;;3.13;;
17814;SDS011;9031;50.974;11.330;2023-10-13T05:51:29;4.20;;;3.30;;
17814;SDS011;9031;50.974;11.330;2023-10-13T05:54:08;5.57;;;3.47;;
17814;SDS011;9031;50.974;11.330;2023-10-13T05:56:38;5.77;;;3.10;;
17814;SDS011;9031;50.974;11.330;2023-10-13T05:59:23;3.40;;;3.00;;
17814;SDS011;9031;50.974;11.330;2023-10-13T06:02:06;3.47;;;2.90;;
17814;SDS011;9031;50.974;11.330;2023-10-13T06:04:50;3.20;;;2.63;;
17814;SDS011;9031;50.974;11.330;2023-10-13T06:07:34;3.63;;;3.20;;
17814;SDS011;9031;50.974;11.330;2023-10-13T06:10:18;5.30;;;3.10;;
17814;SDS011;9031;50.974;11.330;2023-10-13T06:13:03;4.63;;;3.20;;
17814;SDS011;9031;50.974;11.330;2023-10-13T06:15:47;4.93;;;3.17;;
17814;SDS011;9031;50.974;11.330;2023-10-13T06:18:30;5.23;;;3.13;;
17814;SDS011;9031;50.974;11.330;2023-10-13T06:21:14;5.07;;;3.60;;
17814;SDS011;9031;50.974;11.330;2023-10-13T06:23:58;5.63;;;3.03;;
17814;SDS011;9031;50.974;11.330;2023-10-13T06:26:42;5.33;;;3.70;;
17814;SDS011;9031;50.974;11.330;2023-10-13T06:29:26;5.87;;;3.30;;
17814;SDS011;9031;50.974;11.330;2023-10-13T06:31:52;3.50;;;3.20;;
17814;SDS011;9031;50.974;11.330;2023-10-13T06:34:17;5.17;;;3.30;;
17814;SDS011;9031;50.974;11.330;2023-10-13T06:36:45;8.50;;;3.33;;
17814;SDS011;9031;50.974;11.330;2023-10-13T06:39:12;4.23;;;3.00;;
17814;SDS011;9031;50.974;11.330;2023-10-13T06:41:56;5.37;;;3.27;;
17814;SDS011;9031;50.974;11.330;2023-10-13T06:44:21;5.63;;;3.40;;
17814;SDS011;9031;50.974;11.330;2023-10-13T06:46:49;4.43;;;3.20;;
17814;SDS011;9031;50.974;11.330;2023-10-13T06:49:15;7.73;;;3.47;;
17814;SDS011;9031;50.974;11.330;2023-10-13T06:51:43;4.40;;;3.17;;
17814;SDS011;9031;50.974;11.330;2023-10-13T06:54:12;5.87;;;3.03;;
17814;SDS011;9031;50.974;11.330;2023-10-13T06:56:46;6.30;;;3.67;;
17814;SDS011;9031;50.974;11.330;2023-10-13T06:59:16;4.50;;;3.37;;
17814;SDS011;9031;50.974;11.330;2023-10-13T07:01:42;4.70;;;3.30;;
17814;SDS011;9031;50.974;11.330;2023-10-13T07:04:09;8.47;;;3.73;;
17814;SDS011;9031;50.974;11.330;2023-10-13T07:06:40;5.20;;;3.40;;
17814;SDS011;9031;50.974;11.330;2023-10-13T07:09:18;6.27;;;3.20;;
17814;SDS011;9031;50.974;11.330;2023-10-13T07:12:04;4.70;;;3.13;;
17814;SDS011;9031;50.974;11.330;2023-10-13T07:14:50;5.33;;;3.70;;
17814;SDS011;9031;50.974;11.330;2023-10-13T07:17:36;4.40;;;3.10;;
17814;SDS011;9031;50.974;11.330;2023-10-13T07:20:05;5.63;;;3.60;;
17814;SDS011;9031;50.974;11.330;2023-10-13T07:22:39;4.77;;;3.50;;
17814;SDS011;9031;50.974;11.330;2023-10-13T07:25:10;5.83;;;3.10;;
17814;SDS011;9031;50.974;11.330;2023-10-13T07:27:43;5.23;;;3.47;;
17814;SDS011;9031;50.974;11.330;2023-10-13T07:30:09;5.87;;;3.60;;
17814;SDS011;9031;50.974;11.330;2023-10-13T07:32:37;4.60;;;3.40;;
17814;SDS011;9031;50.974;11.330;2023-10-13T07:35:03;5.53;;;3.83;;
17814;SDS011;9031;50.974;11.330;2023-10-13T07:37:32;8.70;;;3.63;;
17814;SDS011;9031;50.974;11.330;2023-10-13T07:39:58;6.10;;;3.80;;
17814;SDS011;9031;50.974;11.330;2023-10-13T07:42:27;5.37;;;3.50;;
17814;SDS011;9031;50.974;11.330;2023-10-13T07:45:04;8.23;;;4.17;;
17814;SDS011;9031;50.974;11.330;2023-10-13T07:47:30;6.10;;;3.63;;
17814;SDS011;9031;50.974;11.330;2023-10-13T07:49:57;6.43;;;3.87;;
17814;SDS011;9031;50.974;11.330;2023-10-13T07:52:23;10.90;;;4.37;;
17814;SDS011;9031;50.974;11.330;2023-10-13T07:55:01;8.37;;;3.97;;
17814;SDS011;9031;50.974;11.330;2023-10-13T07:57:44;7.60;;;3.77;;
17814;SDS011;9031;50.974;11.330;2023-10-13T08:00:20;6.23;;;3.50;;
17814;SDS011;9031;50.974;11.330;2023-10-13T08:03:07;5.23;;;3.50;;
17814;SDS011;9031;50.974;11.330;2023-10-13T08:05:42;4.93;;;3.20;;
17814;SDS011;9031;50.974;11.330;2023-10-13T08:08:29;6.23;;;3.80;;
17814;SDS011;9031;50.974;11.330;2023-10-13T08:13:37;7.40;;;3.87;;
17814;SDS011;9031;50.974;11.330;2023-10-13T08:16:03;6.40;;;3.47;;
17814;SDS011;9031;50.974;11.330;2023-10-13T08:18:36;7.53;;;3.70;;
17814;SDS011;9031;50.974;11.330;2023-10-13T08:21:06;6.07;;;3.77;;
17814;SDS011;9031;50.974;11.330;2023-10-13T08:23:32;6.87;;;4.00;;
17814;SDS011;9031;50.974;11.330;2023-10-13T08:26:16;6.77;;;3.77;;
17814;SDS011;9031;50.974;11.330;2023-10-13T08:29:00;5.80;;;3.70;;
17814;SDS011;9031;50.974;11.330;2023-10-13T08:31:45;5.83;;;3.63;;
17814;SDS011;9031;50.974;11.330;2023-10-13T08:34:34;10.87;;;3.70;;
17814;SDS011;9031;50.974;11.330;2023-10-13T08:37:12;9.20;;;3.53;;
17814;SDS011;9031;50.974;11.330;2023-10-13T08:39:55;9.17;;;4.00;;
17814;SDS011;9031;50.974;11.330;2023-10-13T08:47:34;5.50;;;3.27;;
17814;SDS011;9031;50.974;11.330;2023-10-13T08:50:02;6.00;;;3.87;;
17814;SDS011;9031;50.974;11.330;2023-10-13T08:52:57;10.93;;;4.00;;
17814;SDS011;9031;50.974;11.330;2023-10-13T08:55:25;7.90;;;3.67;;
17814;SDS011;9031;50.974;11.330;2023-10-13T08:58:02;9.13;;;4.10;;
17814;SDS011;9031;50.974;11.330;2023-10-13T09:00:39;6.53;;;3.43;;
17814;SDS011;9031;50.974;11.330;2023-10-13T09:03:36;7.87;;;3.90;;
17814;SDS011;9031;50.974;11.330;2023-10-13T09:06:08;7.90;;;3.90;;
17814;SDS011;9031;50.974;11.330;2023-10-13T09:08:39;6.20;;;3.77;;
17814;SDS011;9031;50.974;11.330;2023-10-13T09:11:24;7.70;;;3.57;;
17814;SDS011;9031;50.974;11.330;2023-10-13T09:13:52;6.93;;;3.70;;
17814;SDS011;9031;50.974;11.330;2023-10-13T09:16:18;7.07;;;3.33;;
17814;SDS011;9031;50.974;11.330;2023-10-13T09:19:02;8.63;;;3.50;;
17814;SDS011;9031;50.974;11.330;2023-10-13T09:21:37;10.33;;;4.23;;
17814;SDS011;9031;50.974;11.330;2023-10-13T09:24:08;7.37;;;3.43;;
17814;SDS011;9031;50.974;11.330;2023-10-13T09:26:52;5.77;;;3.40;;
17814;SDS011;9031;50.974;11.330;2023-10-13T09:29:21;6.07;;;3.50;;
17814;SDS011;9031;50.974;11.330;2023-10-13T09:31:47;4.90;;;3.03;;
17814;SDS011;9031;50.974;11.330;2023-10-13T09:34:25;7.17;;;3.00;;
17814;SDS011;9031;50.974;11.330;2023-10-13T09:36:55;8.03;;;3.30;;
17814;SDS011;9031;50.974;11.330;2023-10-13T09:39:28;10.23;;;3.70;;
17814;SDS011;9031;50.974;11.330;2023-10-13T09:42:06;7.63;;;3.17;;
17814;SDS011;9031;50.974;11.330;2023-10-13T09:44:35;8.27;;;3.77;;
17814;SDS011;9031;50.974;11.330;2023-10-13T09:47:02;9.63;;;3.40;;
17814;SDS011;9031;50.974;11.330;2023-10-13T09:49:34;11.83;;;3.83;;
17814;SDS011;9031;50.974;11.330;2023-10-13T09:52:12;13.13;;;6.60;;
17814;SDS011;9031;50.974;11.330;2023-10-13T09:54:44;5.90;;;3.20;;
17814;SDS011;9031;50.974;11.330;2023-10-13T09:57:26;8.90;;;3.50;;
17814;SDS011;9031;50.974;11.330;2023-10-13T10:00:09;8.33;;;3.23;;
17814;SDS011;9031;50.974;11.330;2023-10-13T10:03:00;8.07;;;3.57;;
17814;SDS011;9031;50.974;11.330;2023-10-13T10:05:55;8.10;;;3.57;;
17814;SDS011;9031;50.974;11.330;2023-10-13T10:08:28;10.63;;;3.33;;
17814;SDS011;9031;50.974;11.330;2023-10-13T10:11:07;7.03;;;3.40;;
17814;SDS011;9031;50.974;11.330;2023-10-13T10:14:02;10.00;;;3.33;;
17814;SDS011;9031;50.974;11.330;2023-10-13T10:16:39;10.47;;;3.30;;
17814;SDS011;9031;50.974;11.330;2023-10-13T10:19:19;12.17;;;3.53;;
17814;SDS011;9031;50.974;11.330;2023-10-13T10:21:46;17.97;;;12.67;;
17814;SDS011;9031;50.974;11.330;2023-10-13T10:24:14;10.97;;;3.80;;
17814;SDS011;9031;50.974;11.330;2023-10-13T10:26:51;10.20;;;3.77;;
17814;SDS011;9031;50.974;11.330;2023-10-13T10:29:17;9.77;;;3.70;;
17814;SDS011;9031;50.974;11.330;2023-10-13T10:31:42;8.90;;;3.73;;
17814;SDS011;9031;50.974;11.330;2023-10-13T10:34:17;11.17;;;3.93;;
17814;SDS011;9031;50.974;11.330;2023-10-13T10:36:54;15.93;;;3.50;;
17814;SDS011;9031;50.974;11.330;2023-10-13T10:39:20;10.37;;;3.13;;
17814;SDS011;9031;50.974;11.330;2023-10-13T10:41:46;10.83;;;3.87;;
17814;SDS011;9031;50.974;11.330;2023-10-13T10:44:18;6.30;;;3.00;;
17814;SDS011;9031;50.974;11.330;2023-10-13T10:46:51;11.00;;;3.47;;
17814;SDS011;9031;50.974;11.330;2023-10-13T10:49:18;11.37;;;3.83;;
17814;SDS011;9031;50.974;11.330;2023-10-13T10:51:52;8.27;;;3.33;;
17814;SDS011;9031;50.974;11.330;2023-10-13T10:54:30;9.87;;;3.30;;
17814;SDS011;9031;50.974;11.330;2023-10-13T10:56:59;11.77;;;4.13;;
17814;SDS011;9031;50.974;11.330;2023-10-13T10:59:42;7.60;;;3.30;;
17814;SDS011;9031;50.974;11.330;2023-10-13T11:02:08;13.37;;;3.20;;
17814;SDS011;9031;50.974;11.330;2023-10-13T11:04:40;8.20;;;3.13;;
17814;SDS011;9031;50.974;11.330;2023-10-13T11:07:24;9.13;;;3.50;;
17814;SDS011;9031;50.974;11.330;2023-10-13T11:09:52;8.83;;;3.10;;
17814;SDS011;9031;50.974;11.330;2023-10-13T11:12:18;8.10;;;3.60;;
17814;SDS011;9031;50.974;11.330;2023-10-13T11:15:04;8.23;;;3.00;;
17814;SDS011;9031;50.974;11.330;2023-10-13T11:17:50;6.87;;;3.20;;
17814;SDS011;9031;50.974;11.330;2023-10-13T11:20:19;11.27;;;3.53;;
17814;SDS011;9031;50.974;11.330;2023-10-13T11:22:50;10.77;;;3.30;;
17814;SDS011;9031;50.974;11.330;2023-10-13T11:25:21;10.77;;;3.50;;
17814;SDS011;9031;50.974;11.330;2023-10-13T11:27:48;10.03;;;3.30;;
17814;SDS011;9031;50.974;11.330;2023-10-13T11:30:14;10.73;;;3.63;;
17814;SDS011;9031;50.974;11.330;2023-10-13T11:33:06;9.30;;;3.07;;
17814;SDS011;9031;50.974;11.330;2023-10-13T11:35:36;8.23;;;3.30;;
17814;SDS011;9031;50.974;11.330;2023-10-13T11:38:18;8.00;;;3.73;;
17814;SDS011;9031;50.974;11.330;2023-10-13T11:41:03;10.60;;;3.10;;
17814;SDS011;9031;50.974;11.330;2023-10-13T11:43:29;6.07;;;3.10;;
17814;SDS011;9031;50.974;11.330;2023-10-13T11:46:13;5.13;;;2.83;;
17814;SDS011;9031;50.974;11.330;2023-10-13T11:48:43;6.03;;;3.05;;
17814;SDS011;9031;50.974;11.330;2023-10-13T11:51:11;6.93;;;3.25;;
17814;SDS011;9031;50.974;11.330;2023-10-13T11:53:49;5.35;;;2.88;;
17814;SDS011;9031;50.974;11.330;2023-10-13T11:56:18;6.95;;;3.08;;
17814;SDS011;9031;50.974;11.330;2023-10-13T11:58:46;9.32;;;2.67;;
17814;SDS011;9031;50.974;11.330;2023-10-13T12:01:12;6.32;;;2.90;;
17814;SDS011;9031;50.974;11.330;2023-10-13T12:03:41;9.63;;;3.30;;
17814;SDS011;9031;50.974;11.330;2023-10-13T12:06:29;8.15;;;3.25;;
17814;SDS011;9031;50.974;11.330;2023-10-13T12:09:02;6.20;;;3.30;;
17814;SDS011;9031;50.974;11.330;2023-10-13T12:11:42;7.77;;;3.20;;
17814;SDS011;9031;50.974;11.330;2023-10-13T12:14:09;8.97;;;3.73;;
17814;SDS011;9031;50.974;11.330;2023-10-13T12:16:48;9.73;;;3.40;;
17814;SDS011;9031;50.974;11.330;2023-10-13T12:19:25;9.67;;;3.23;;
17814;SDS011;9031;50.974;11.330;2023-10-13T12:21:53;5.53;;;3.40;;
17814;SDS011;9031;50.974;11.330;2023-10-13T12:24:20;10.93;;;3.43;;
17814;SDS011;9031;50.974;11.330;2023-10-13T12:27:02;5.70;;;3.00;;
17814;SDS011;9031;50.974;11.330;2023-10-13T12:29:27;6.17;;;3.00;;
17814;SDS011;9031;50.974;11.330;2023-10-13T12:31:54;8.83;;;2.70;;
17814;SDS011;9031;50.974;11.330;2023-10-13T12:34:39;7.20;;;3.15;;
17814;SDS011;9031;50.974;11.330;2023-10-13T12:37:26;6.97;;;2.38;;
17814;SDS011;9031;50.974;11.330;2023-10-13T12:40:08;5.85;;;2.90;;
17814;SDS011;9031;50.974;11.330;2023-10-13T12:42:57;5.97;;;2.97;;
17814;SDS011;9031;50.974;11.330;2023-10-13T12:45:41;7.78;;;3.13;;
17814;SDS011;9031;50.974;11.330;2023-10-13T12:48:26;7.18;;;3.08;;
17814;SDS011;9031;50.974;11.330;2023-10-13T12:51:11;7.63;;;3.42;;
17814;SDS011;9031;50.974;11.330;2023-10-13T12:53:55;9.73;;;3.33;;
17814;SDS011;9031;50.974;11.330;2023-10-13T12:56:29;7.80;;;3.10;;
17814;SDS011;9031;50.974;11.330;2023-10-13T12:58:55;5.93;;;2.80;;
17814;SDS011;9031;50.974;11.330;2023-10-13T13:01:22;5.27;;;3.10;;
17814;SDS011;9031;50.974;11.330;2023-10-13T13:03:49;11.80;;;3.10;;
17814;SDS011;9031;50.974;11.330;2023-10-13T13:06:20;6.73;;;3.40;;
17814;SDS011;9031;50.974;11.330;2023-10-13T13:08:59;9.57;;;3.47;;
17814;SDS011;9031;50.974;11.330;2023-10-13T13:11:25;10.17;;;3.43;;
17814;SDS011;9031;50.974;11.330;2023-10-13T13:13:53;7.67;;;3.00;;
17814;SDS011;9031;50.974;11.330;2023-10-13T13:16:19;8.63;;;3.10;;
17814;SDS011;9031;50.974;11.330;2023-10-13T13:18:49;5.57;;;2.90;;
17814;SDS011;9031;50.974;11.330;2023-10-13T13:21:15;7.00;;;3.00;;
17814;SDS011;9031;50.974;11.330;2023-10-13T13:23:46;9.13;;;3.27;;
17814;SDS011;9031;50.974;11.330;2023-10-13T13:26:12;6.83;;;2.73;;
17814;SDS011;9031;50.974;11.330;2023-10-13T13:28:46;8.10;;;2.90;;
17814;SDS011;9031;50.974;11.330;2023-10-13T13:31:16;6.30;;;2.63;;
17814;SDS011;9031;50.974;11.330;2023-10-13T13:33:42;8.80;;;2.93;;
17814;SDS011;9031;50.974;11.330;2023-10-13T13:36:09;6.40;;;2.50;;
17814;SDS011;9031;50.974;11.330;2023-10-13T13:38:40;8.87;;;2.90;;
17814;SDS011;9031;50.974;11.330;2023-10-13T13:41:12;6.20;;;2.73;;
17814;SDS011;9031;50.974;11.330;2023-10-13T13:43:50;6.07;;;2.87;;
17814;SDS011;9031;50.974;11.330;2023-10-13T13:46:20;7.53;;;2.77;;
17814;SDS011;9031;50.974;11.330;2023-10-13T13:48:52;8.27;;;2.80;;
17814;SDS011;9031;50.974;11.330;2023-10-13T13:51:24;7.23;;;2.90;;
17814;SDS011;9031;50.974;11.330;2023-10-13T13:53:53;12.40;;;3.73;;
17814;SDS011;9031;50.974;11.330;2023-10-13T13:56:20;6.30;;;2.90;;
17814;SDS011;9031;50.974;11.330;2023-10-13T13:58:46;6.87;;;2.90;;
17814;SDS011;9031;50.974;11.330;2023-10-13T14:01:14;11.00;;;3.37;;
17814;SDS011;9031;50.974;11.330;2023-10-13T14:03:43;8.10;;;3.10;;
17814;SDS011;9031;50.974;11.330;2023-10-13T14:06:13;9.50;;;2.83;;
17814;SDS011;9031;50.974;11.330;2023-10-13T14:08:52;9.37;;;3.17;;
17814;SDS011;9031;50.974;11.330;2023-10-13T14:11:26;8.17;;;3.20;;
17814;SDS011;9031;50.974;11.330;2023-10-13T14:14:14;8.57;;;2.97;;
17814;SDS011;9031;50.974;11.330;2023-10-13T14:16:49;8.63;;;3.00;;
17814;SDS011;9031;50.974;11.330;2023-10-13T14:19:15;5.10;;;3.67;;
17814;SDS011;9031;50.974;11.330;2023-10-13T14:21:53;9.37;;;2.67;;
17814;SDS011;9031;50.974;11.330;2023-10-13T14:24:22;6.10;;;3.27;;
17814;SDS011;9031;50.974;11.330;2023-10-13T14:26:58;8.07;;;3.10;;
17814;SDS011;9031;50.974;11.330;2023-10-13T14:29:32;5.23;;;3.10;;
17814;SDS011;9031;50.974;11.330;2023-10-13T14:31:58;5.83;;;3.10;;
17814;SDS011;9031;50.974;11.330;2023-10-13T14:34:24;6.13;;;3.03;;
17814;SDS011;9031;50.974;11.330;2023-10-13T14:36:51;6.73;;;3.00;;
17814;SDS011;9031;50.974;11.330;2023-10-13T14:39:19;6.37;;;3.40;;
17814;SDS011;9031;50.974;11.330;2023-10-13T14:41:46;5.57;;;3.20;;
17814;SDS011;9031;50.974;11.330;2023-10-13T14:44:12;5.80;;;3.20;;
17814;SDS011;9031;50.974;11.330;2023-10-13T14:46:38;6.50;;;3.27;;
17814;SDS011;9031;50.974;11.330;2023-10-13T14:49:04;8.13;;;3.37;;
17814;SDS011;9031;50.974;11.330;2023-10-13T14:51:30;5.23;;;3.27;;
17814;SDS011;9031;50.974;11.330;2023-10-13T14:54:04;6.90;;;3.50;;
17814;SDS011;9031;50.974;11.330;2023-10-13T14:56:30;5.83;;;3.50;;
17814;SDS011;9031;50.974;11.330;2023-10-13T14:58:55;6.73;;;3.53;;
17814;SDS011;9031;50.974;11.330;2023-10-13T15:01:22;6.37;;;3.13;;
17814;SDS011;9031;50.974;11.330;2023-10-13T15:03:52;7.00;;;3.13;;
17814;SDS011;9031;50.974;11.330;2023-10-13T15:06:23;7.00;;;3.13;;
17814;SDS011;9031;50.974;11.330;2023-10-13T15:08:51;9.00;;;3.40;;
17814;SDS011;9031;50.974;11.330;2023-10-13T15:11:19;7.00;;;3.17;;
17814;SDS011;9031;50.974;11.330;2023-10-13T15:13:45;7.30;;;2.90;;
17814;SDS011;9031;50.974;11.330;2023-10-13T15:18:42;6.97;;;2.90;;
17814;SDS011;9031;50.974;11.330;2023-10-13T15:21:11;7.37;;;3.07;;
17814;SDS011;9031;50.974;11.330;2023-10-13T15:23:43;6.03;;;3.27;;
17814;SDS011;9031;50.974;11.330;2023-10-13T15:26:09;6.40;;;3.23;;
17814;SDS011;9031;50.974;11.330;2023-10-13T15:28:35;5.70;;;3.07;;
17814;SDS011;9031;50.974;11.330;2023-10-13T15:31:02;6.10;;;2.93;;
17814;SDS011;9031;50.974;11.330;2023-10-13T15:33:49;6.60;;;3.27;;
17814;SDS011;9031;50.974;11.330;2023-10-13T15:36:17;7.00;;;2.93;;
17814;SDS011;9031;50.974;11.330;2023-10-13T15:38:44;5.83;;;3.17;;